createdAt,value
2023-05-14T00:00:08.527Z,13.00
2023-05-14T00:02:56.122Z,9.90
2023-05-14T00:05:24.188Z,9.80
2023-05-14T00:07:51.663Z,10.30
2023-05-14T00:10:22.264Z,10.50
2023-05-14T00:12:51.777Z,10.50
2023-05-14T00:15:19.975Z,12.10
2023-05-14T00:17:47.514Z,10.40
2023-05-14T00:20:15.145Z,11.70
2023-05-14T00:22:42.708Z,9.20
2023-05-14T00:25:10.582Z,10.90
2023-05-14T00:27:38.240Z,9.60
2023-05-14T00:30:06.937Z,9.00
2023-05-14T00:32:34.589Z,10.50
2023-05-14T00:35:04.411Z,10.40
2023-05-14T00:37:32.213Z,9.80
2023-05-14T00:39:59.880Z,10.80
2023-05-14T00:42:27.793Z,9.40
2023-05-14T00:44:55.400Z,10.20
2023-05-14T00:47:23.142Z,10.10
2023-05-14T00:49:50.742Z,9.90
2023-05-14T00:52:18.744Z,12.60
2023-05-14T00:54:48.093Z,12.90
2023-05-14T00:57:15.734Z,8.70
2023-05-14T00:59:43.265Z,10.10
2023-05-14T01:02:11.389Z,11.10
2023-05-14T01:04:40.154Z,12.30
2023-05-14T01:07:40.406Z,12.40
2023-05-14T01:10:16.020Z,9.40
2023-05-14T01:12:59.479Z,10.00
2023-05-14T01:15:33.609Z,11.10
2023-05-14T01:18:07.829Z,10.40
2023-05-14T01:20:36.548Z,10.90
2023-05-14T01:23:04.109Z,10.60
2023-05-14T01:25:32.449Z,11.40
2023-05-14T01:28:03.028Z,10.40
2023-05-14T01:30:40.199Z,10.10
2023-05-14T01:33:13.857Z,10.80
2023-05-14T01:35:42.012Z,12.20
2023-05-14T01:38:13.888Z,8.80
2023-05-14T01:40:44.570Z,13.30
2023-05-14T01:43:12.624Z,8.90
2023-05-14T01:45:40.623Z,10.10
2023-05-14T01:48:08.535Z,8.60
2023-05-14T01:50:38.807Z,10.00
2023-05-14T01:53:06.611Z,9.70
2023-05-14T01:55:34.045Z,10.20
2023-05-14T01:58:01.627Z,9.20
2023-05-14T02:00:29.259Z,11.30
2023-05-14T02:02:56.836Z,9.60
2023-05-14T02:05:24.519Z,9.50
2023-05-14T02:07:52.161Z,8.70
2023-05-14T02:10:19.786Z,8.60
2023-05-14T02:12:47.489Z,15.70
2023-05-14T02:15:15.064Z,11.60
2023-05-14T02:17:42.748Z,10.70
2023-05-14T02:20:11.156Z,10.30
2023-05-14T02:22:41.169Z,9.80
2023-05-14T02:25:09.595Z,9.70
2023-05-14T02:27:37.159Z,9.60
2023-05-14T02:30:06.144Z,11.00
2023-05-14T02:32:33.753Z,12.00
2023-05-14T02:35:01.575Z,10.50
2023-05-14T02:37:29.238Z,10.20
2023-05-14T02:39:56.744Z,9.10
2023-05-14T02:42:24.316Z,10.30
2023-05-14T02:44:54.936Z,10.60
2023-05-14T02:47:22.619Z,9.90
2023-05-14T02:49:50.356Z,10.30
2023-05-14T02:52:17.914Z,10.60
2023-05-14T02:54:46.596Z,14.70
2023-05-14T02:57:14.117Z,12.60
2023-05-14T02:59:41.741Z,12.60
2023-05-14T03:02:09.628Z,11.70
2023-05-14T03:04:37.725Z,9.90
2023-05-14T03:07:05.539Z,10.40
2023-05-14T03:09:33.111Z,9.30
2023-05-14T03:12:01.521Z,8.70
2023-05-14T03:14:29.271Z,18.50
2023-05-14T03:16:56.772Z,8.70
2023-05-14T03:19:24.530Z,11.50
2023-05-14T03:21:52.060Z,10.20
2023-05-14T03:24:19.522Z,12.60
2023-05-14T03:26:48.151Z,9.30
2023-05-14T03:29:18.256Z,10.00
2023-05-14T03:31:45.914Z,10.60
2023-05-14T03:34:13.549Z,13.70
2023-05-14T03:36:41.143Z,11.20
2023-05-14T03:39:09.650Z,12.40
2023-05-14T03:41:37.717Z,11.00
2023-05-14T03:44:06.380Z,12.90
2023-05-14T03:46:34.268Z,12.30
2023-05-14T03:49:01.964Z,10.20
2023-05-14T03:51:29.681Z,9.70
2023-05-14T03:53:58.321Z,11.00
2023-05-14T03:56:26.294Z,9.90
2023-05-14T03:58:53.763Z,10.20
2023-05-14T04:01:21.423Z,9.70
2023-05-14T04:03:49.131Z,10.30
2023-05-14T04:06:16.769Z,9.50
2023-05-14T04:08:44.400Z,9.20
2023-05-14T04:11:11.914Z,11.30
2023-05-14T04:13:39.435Z,11.90
2023-05-14T04:16:07.101Z,11.50
2023-05-14T04:18:37.095Z,11.60
2023-05-14T04:21:04.933Z,9.10
2023-05-14T04:23:32.521Z,10.00
2023-05-14T04:26:00.590Z,9.60
2023-05-14T04:28:28.058Z,8.90
2023-05-14T04:30:56.946Z,10.80
2023-05-14T04:33:24.539Z,10.10
2023-05-14T04:35:52.823Z,10.30
2023-05-14T04:38:20.397Z,8.50
2023-05-14T04:40:47.883Z,10.60
2023-05-14T04:43:17.959Z,10.80
2023-05-14T04:45:45.664Z,8.50
2023-05-14T04:48:13.160Z,9.50
2023-05-14T04:50:40.763Z,10.50
2023-05-14T04:53:08.233Z,28.90
2023-05-14T04:55:35.758Z,20.40
2023-05-14T04:58:03.326Z,16.40
2023-05-14T05:00:30.834Z,11.50
2023-05-14T05:02:58.839Z,13.70
2023-05-14T05:05:26.661Z,12.50
2023-05-14T05:07:54.476Z,9.70
2023-05-14T05:10:22.233Z,15.20
2023-05-14T05:12:50.314Z,15.30
2023-05-14T05:15:17.917Z,25.20
2023-05-14T05:17:45.900Z,32.80
2023-05-14T05:20:13.892Z,29.80
2023-05-14T05:22:41.430Z,47.70
2023-05-14T05:25:09.443Z,35.90
2023-05-14T05:27:39.415Z,16.80
2023-05-14T05:30:08.371Z,13.10
2023-05-14T05:32:36.687Z,9.40
2023-05-14T05:35:05.016Z,11.40
2023-05-14T05:37:33.105Z,15.00
2023-05-14T05:40:00.767Z,16.10
2023-05-14T05:42:28.348Z,9.60
2023-05-14T05:44:56.293Z,10.80
2023-05-14T05:47:25.564Z,10.20
2023-05-14T05:49:54.048Z,16.40
2023-05-14T05:52:21.711Z,8.80
2023-05-14T05:54:49.292Z,8.00
2023-05-14T05:57:16.785Z,8.00
2023-05-14T05:59:44.492Z,10.50
2023-05-14T06:02:12.103Z,9.10
2023-05-14T06:04:39.761Z,11.00
2023-05-14T06:07:07.251Z,8.70
2023-05-14T06:09:34.737Z,10.60
2023-05-14T06:12:02.237Z,10.00
2023-05-14T06:14:29.793Z,8.30
2023-05-14T06:16:58.702Z,13.70
2023-05-14T06:19:26.431Z,10.60
2023-05-14T06:21:54.058Z,11.40
2023-05-14T06:24:21.686Z,8.90
2023-05-14T06:26:49.311Z,12.70
2023-05-14T06:29:17.047Z,9.40
2023-05-14T06:31:44.586Z,9.80
2023-05-14T06:34:12.241Z,10.20
2023-05-14T06:36:40.236Z,10.30
2023-05-14T06:39:07.730Z,9.30
2023-05-14T06:41:35.374Z,8.70
2023-05-14T06:44:02.921Z,11.30
2023-05-14T06:46:30.586Z,8.40
2023-05-14T06:48:59.515Z,9.80
2023-05-14T06:51:27.244Z,12.20
2023-05-14T06:53:58.847Z,8.40
2023-05-14T06:56:26.471Z,10.90
2023-05-14T06:58:54.052Z,11.50
2023-05-14T07:01:21.659Z,9.10
2023-05-14T07:03:49.233Z,9.70
2023-05-14T07:06:16.859Z,8.90
2023-05-14T07:08:47.319Z,7.80
2023-05-14T07:11:15.282Z,7.40
2023-05-14T07:13:42.960Z,7.30
2023-05-14T07:16:10.506Z,8.50
2023-05-14T07:18:38.086Z,8.40
2023-05-14T07:21:07.424Z,7.00
2023-05-14T07:23:38.473Z,7.20
2023-05-14T07:26:07.956Z,6.10
2023-05-14T07:28:35.829Z,9.40
2023-05-14T07:31:08.714Z,8.10
2023-05-14T07:33:36.465Z,12.20
2023-05-14T07:36:05.018Z,8.50
2023-05-14T07:38:32.798Z,8.60
2023-05-14T07:41:00.503Z,7.90
2023-05-14T07:43:28.161Z,6.20
2023-05-14T07:45:55.860Z,11.10
2023-05-14T07:48:23.626Z,12.60
2023-05-14T07:50:51.861Z,8.00
2023-05-14T07:53:19.533Z,7.90
2023-05-14T07:55:49.152Z,7.40
2023-05-14T07:58:16.673Z,7.10
2023-05-14T08:00:44.297Z,6.40
2023-05-14T08:03:11.959Z,9.00
2023-05-14T08:05:40.130Z,12.50
2023-05-14T08:08:07.717Z,9.00
2023-05-14T08:10:35.304Z,7.30
2023-05-14T08:13:03.682Z,7.90
2023-05-14T08:15:31.388Z,7.40
2023-05-14T08:18:03.304Z,6.80
2023-05-14T08:20:31.132Z,6.30
2023-05-14T08:22:58.685Z,7.80
2023-05-14T08:25:26.252Z,8.90
2023-05-14T08:27:54.220Z,7.50
2023-05-14T08:30:23.292Z,8.70
2023-05-14T08:32:51.342Z,6.60
2023-05-14T08:35:19.158Z,6.30
2023-05-14T08:37:46.757Z,10.40
2023-05-14T08:40:14.306Z,10.50
2023-05-14T08:42:44.709Z,8.30
2023-05-14T08:45:21.813Z,6.70
2023-05-14T08:47:51.023Z,6.30
2023-05-14T08:50:23.598Z,8.20
2023-05-14T08:52:52.856Z,6.80
2023-05-14T08:55:20.918Z,6.30
2023-05-14T08:57:49.086Z,7.20
2023-05-14T09:00:16.739Z,17.20
2023-05-14T09:02:44.949Z,9.30
2023-05-14T09:05:13.213Z,8.00
2023-05-14T09:07:41.306Z,8.30
2023-05-14T09:10:10.048Z,6.30
2023-05-14T09:12:37.753Z,7.00
2023-05-14T09:15:06.581Z,8.80
2023-05-14T09:17:34.804Z,6.30
2023-05-14T09:20:03.069Z,7.20
2023-05-14T09:22:33.436Z,7.40
2023-05-14T09:25:09.750Z,10.60
2023-05-14T09:27:38.381Z,6.80
2023-05-14T09:30:13.377Z,6.30
2023-05-14T09:32:45.903Z,7.10
2023-05-14T09:35:22.172Z,10.10
2023-05-14T09:37:54.650Z,10.90
2023-05-14T09:40:24.621Z,6.40
2023-05-14T09:42:53.359Z,10.60
2023-05-14T09:45:21.017Z,6.60
2023-05-14T09:47:49.687Z,7.10
2023-05-14T09:50:17.501Z,7.20
2023-05-14T09:52:45.028Z,11.40
2023-05-14T09:55:13.448Z,6.70
2023-05-14T09:57:40.985Z,7.20
2023-05-14T10:00:10.154Z,6.10
2023-05-14T10:02:40.556Z,6.30
2023-05-14T10:05:09.742Z,7.60
2023-05-14T10:07:42.657Z,15.50
2023-05-14T10:10:15.223Z,8.50
2023-05-14T10:12:46.238Z,8.50
2023-05-14T10:15:20.968Z,7.90
2023-05-14T10:17:57.109Z,8.20
2023-05-14T10:20:26.645Z,8.80
2023-05-14T10:22:54.374Z,8.30
2023-05-14T10:25:23.035Z,8.50
2023-05-14T10:27:53.434Z,6.70
2023-05-14T10:30:23.437Z,6.10
2023-05-14T10:33:09.461Z,7.10
2023-05-14T10:36:09.147Z,7.40
2023-05-14T10:38:38.277Z,7.30
2023-05-14T10:41:10.369Z,6.80
2023-05-14T10:43:39.781Z,6.70
2023-05-14T10:46:09.063Z,9.40
2023-05-14T10:48:37.910Z,5.60
2023-05-14T10:51:09.319Z,8.00
2023-05-14T10:53:42.414Z,8.40
2023-05-14T10:56:12.085Z,17.80
2023-05-14T10:58:44.633Z,7.10
2023-05-14T11:01:13.647Z,5.00
2023-05-14T11:03:45.400Z,5.50
2023-05-14T11:06:15.852Z,11.50
2023-05-14T11:08:44.845Z,8.10
2023-05-14T11:11:12.628Z,5.90
2023-05-14T11:13:41.260Z,5.80
2023-05-14T11:16:21.705Z,6.40
2023-05-14T11:19:02.294Z,7.20
2023-05-14T11:21:31.668Z,7.70
2023-05-14T11:24:00.808Z,6.20
2023-05-14T11:26:28.415Z,5.70
2023-05-14T11:28:56.365Z,7.30
2023-05-14T11:31:25.340Z,7.40
2023-05-14T11:33:53.821Z,8.50
2023-05-14T11:36:22.226Z,7.40
2023-05-14T11:38:51.328Z,5.60
2023-05-14T11:41:21.290Z,7.50
2023-05-14T11:43:48.941Z,14.00
2023-05-14T11:46:18.453Z,8.10
2023-05-14T11:48:46.152Z,8.00
2023-05-14T11:51:13.727Z,7.10
2023-05-14T11:53:41.373Z,6.60
2023-05-14T11:56:09.946Z,8.20
2023-05-14T11:58:38.051Z,7.30
2023-05-14T12:01:05.647Z,8.30
2023-05-14T12:03:33.683Z,5.50
2023-05-14T12:06:07.205Z,9.70
2023-05-14T12:08:34.714Z,8.30
2023-05-14T12:11:02.174Z,8.50
2023-05-14T12:13:31.328Z,7.70
2023-05-14T12:16:02.044Z,6.30
2023-05-14T12:18:32.270Z,8.40
2023-05-14T12:21:04.697Z,6.70
2023-05-14T12:23:32.919Z,10.00
2023-05-14T12:26:09.362Z,9.60
2023-05-14T12:28:43.329Z,7.70
2023-05-14T12:31:11.858Z,6.80
2023-05-14T12:33:39.388Z,6.70
2023-05-14T12:38:37.636Z,8.10
2023-05-14T12:41:05.190Z,7.50
2023-05-14T12:43:32.663Z,8.50
2023-05-14T12:46:00.204Z,7.00
2023-05-14T12:48:27.762Z,7.10
2023-05-14T12:50:56.026Z,6.90
2023-05-14T12:53:23.952Z,13.70
2023-05-14T12:55:51.618Z,6.70
2023-05-14T12:58:19.076Z,8.10
2023-05-14T13:00:46.646Z,9.50
2023-05-14T13:03:14.212Z,6.80
2023-05-14T13:05:41.964Z,8.70
2023-05-14T13:08:10.165Z,6.10
2023-05-14T13:10:37.641Z,8.40
2023-05-14T13:13:05.218Z,8.20
2023-05-14T13:15:33.652Z,11.50
2023-05-14T13:18:01.159Z,7.50
2023-05-14T13:20:30.865Z,7.20
2023-05-14T13:22:58.336Z,9.50
2023-05-14T13:25:27.450Z,6.10
2023-05-14T13:27:55.131Z,6.90
2023-05-14T13:30:22.631Z,8.10
2023-05-14T13:32:50.438Z,8.30
2023-05-14T13:35:18.194Z,6.30
2023-05-14T13:37:46.823Z,10.50
2023-05-14T13:40:14.472Z,7.50
2023-05-14T13:42:42.072Z,7.20
2023-05-14T13:45:09.915Z,8.50
2023-05-14T13:47:37.487Z,7.70
2023-05-14T13:50:05.672Z,8.40
2023-05-14T13:52:33.218Z,7.50
2023-05-14T13:55:00.741Z,10.20
2023-05-14T13:57:28.282Z,7.20
2023-05-14T13:59:55.905Z,15.40
2023-05-14T14:02:23.456Z,7.50
2023-05-14T14:04:50.986Z,9.30
2023-05-14T14:07:18.547Z,5.70
2023-05-14T14:09:45.995Z,5.90
2023-05-14T14:12:13.555Z,8.40
2023-05-14T14:14:41.134Z,8.50
2023-05-14T14:17:09.004Z,7.80
2023-05-14T14:19:36.625Z,7.90
2023-05-14T14:22:04.832Z,8.60
2023-05-14T14:24:32.325Z,8.10
2023-05-14T14:27:00.898Z,7.60
2023-05-14T14:29:30.994Z,9.40
2023-05-14T14:31:59.311Z,6.80
2023-05-14T14:34:27.021Z,8.60
2023-05-14T14:36:54.534Z,7.20
2023-05-14T14:39:24.544Z,8.20
2023-05-14T14:41:52.148Z,9.10
2023-05-14T14:44:19.608Z,6.80
2023-05-14T14:46:47.479Z,10.20
2023-05-14T14:49:15.002Z,8.10
2023-05-14T14:51:43.220Z,7.40
2023-05-14T14:54:10.723Z,8.50
2023-05-14T14:56:39.031Z,7.00
2023-05-14T14:59:06.560Z,8.30
2023-05-14T15:01:34.186Z,10.60
2023-05-14T15:04:01.735Z,8.60
2023-05-14T15:06:29.343Z,7.40
2023-05-14T15:08:57.210Z,7.60
2023-05-14T15:11:24.868Z,8.70
2023-05-14T15:13:52.391Z,6.70
2023-05-14T15:16:19.991Z,7.90
2023-05-14T15:18:47.579Z,8.70
2023-05-14T15:21:15.362Z,8.60
2023-05-14T15:23:42.913Z,7.60
2023-05-14T15:26:10.428Z,6.30
2023-05-14T15:28:38.345Z,6.20
2023-05-14T15:31:05.981Z,6.30
2023-05-14T15:33:34.002Z,8.80
2023-05-14T15:36:01.545Z,7.10
2023-05-14T15:38:29.194Z,5.30
2023-05-14T15:40:56.762Z,6.70
2023-05-14T15:43:24.372Z,11.90
2023-05-14T15:45:51.879Z,9.60
2023-05-14T15:48:19.442Z,10.50
2023-05-14T15:50:49.692Z,7.50
2023-05-14T15:53:17.895Z,9.40
2023-05-14T15:55:48.510Z,10.40
2023-05-14T15:58:16.018Z,6.00
2023-05-14T16:00:43.567Z,5.40
2023-05-14T16:03:12.257Z,7.10
2023-05-14T16:05:41.417Z,7.10
2023-05-14T16:08:09.075Z,7.50
2023-05-14T16:10:37.772Z,10.70
2023-05-14T16:13:05.375Z,15.80
2023-05-14T16:15:32.912Z,9.90
2023-05-14T16:18:00.667Z,7.10
2023-05-14T16:20:28.268Z,10.30
2023-05-14T16:22:55.797Z,9.50
2023-05-14T16:25:23.366Z,8.10
2023-05-14T16:27:50.871Z,8.40
2023-05-14T16:30:18.440Z,6.80
2023-05-14T16:32:49.504Z,8.40
2023-05-14T16:35:17.148Z,6.90
2023-05-14T16:37:44.797Z,8.80
2023-05-14T16:40:12.842Z,6.90
2023-05-14T16:42:40.370Z,7.70
2023-05-14T16:45:08.723Z,7.20
2023-05-14T16:47:36.374Z,9.00
2023-05-14T16:50:03.984Z,8.10
2023-05-14T16:52:31.709Z,6.00
2023-05-14T16:54:59.291Z,7.40
2023-05-14T16:57:26.783Z,6.10
2023-05-14T16:59:54.296Z,14.50
2023-05-14T17:02:21.817Z,8.10
2023-05-14T17:04:49.420Z,6.40
2023-05-14T17:07:17.411Z,7.50
2023-05-14T17:09:45.071Z,7.50
2023-05-14T17:12:13.615Z,6.50
2023-05-14T17:14:42.179Z,6.90
2023-05-14T17:17:09.637Z,10.00
2023-05-14T17:19:37.114Z,6.10
2023-05-14T17:22:06.481Z,6.90
2023-05-14T17:24:35.369Z,9.30
2023-05-14T17:27:02.910Z,5.60
2023-05-14T17:29:30.564Z,7.00
2023-05-14T17:31:58.251Z,7.90
2023-05-14T17:34:25.936Z,6.60
2023-05-14T17:36:53.537Z,7.70
2023-05-14T17:39:20.998Z,7.30
2023-05-14T17:41:48.553Z,6.40
2023-05-14T17:44:16.094Z,7.10
2023-05-14T17:46:45.132Z,7.40
2023-05-14T17:49:12.913Z,8.40
2023-05-14T17:51:40.640Z,8.90
2023-05-14T17:54:08.260Z,5.70
2023-05-14T17:56:35.906Z,11.80
2023-05-14T17:59:03.842Z,8.40
2023-05-14T18:01:31.553Z,7.40
2023-05-14T18:03:59.350Z,6.80
2023-05-14T18:06:27.162Z,5.60
2023-05-14T18:08:57.491Z,6.90
2023-05-14T18:11:25.993Z,6.50
2023-05-14T18:13:53.462Z,7.30
2023-05-14T18:16:21.070Z,7.70
2023-05-14T18:18:48.945Z,6.10
2023-05-14T18:21:17.925Z,9.10
2023-05-14T18:23:45.498Z,7.00
2023-05-14T18:26:12.999Z,8.40
2023-05-14T18:28:40.836Z,6.90
2023-05-14T18:31:08.456Z,6.20
2023-05-14T18:33:36.060Z,6.60
2023-05-14T18:36:03.951Z,6.00
2023-05-14T18:38:31.475Z,5.50
2023-05-14T18:41:01.673Z,6.40
2023-05-14T18:43:29.185Z,6.30
2023-05-14T18:45:56.819Z,14.70
2023-05-14T18:48:24.795Z,11.10
2023-05-14T18:50:52.312Z,11.60
2023-05-14T18:53:20.080Z,8.40
2023-05-14T18:55:47.643Z,8.40
2023-05-14T18:58:15.173Z,8.60
2023-05-14T19:00:42.819Z,7.60
2023-05-14T19:03:10.499Z,6.90
2023-05-14T19:05:39.826Z,6.60
2023-05-14T19:08:07.563Z,6.50
2023-05-14T19:10:35.030Z,8.00
2023-05-14T19:13:02.904Z,6.80
2023-05-14T19:15:30.522Z,7.70
2023-05-14T19:17:58.210Z,12.20
2023-05-14T19:20:26.232Z,23.50
2023-05-14T19:22:53.711Z,22.90
2023-05-14T19:25:21.213Z,22.30
2023-05-14T19:27:51.052Z,20.70
2023-05-14T19:30:19.928Z,18.30
2023-05-14T19:32:47.532Z,23.50
2023-05-14T19:35:15.611Z,29.40
2023-05-14T19:37:43.127Z,30.00
2023-05-14T19:40:11.067Z,43.80
2023-05-14T19:42:38.582Z,36.90
2023-05-14T19:45:06.575Z,30.00
2023-05-14T19:47:34.234Z,37.20
2023-05-14T19:50:01.903Z,25.70
2023-05-14T19:52:29.374Z,21.40
2023-05-14T19:54:56.847Z,40.30
2023-05-14T19:57:24.376Z,35.00
2023-05-14T19:59:51.916Z,39.70
2023-05-14T20:02:21.597Z,30.70
2023-05-14T20:04:49.517Z,18.00
2023-05-14T20:07:17.148Z,12.90
2023-05-14T20:09:44.730Z,12.60
2023-05-14T20:12:13.200Z,8.00
2023-05-14T20:14:41.282Z,7.20
2023-05-14T20:17:09.078Z,6.10
2023-05-14T20:19:36.714Z,8.90
2023-05-14T20:22:04.515Z,6.60
2023-05-14T20:24:31.982Z,9.10
2023-05-14T20:26:59.449Z,8.00
2023-05-14T20:29:26.980Z,7.80
2023-05-14T20:31:54.542Z,7.40
2023-05-14T20:34:22.155Z,8.20
2023-05-14T20:36:50.009Z,9.80
2023-05-14T20:39:18.325Z,7.90
2023-05-14T20:41:45.963Z,17.40
2023-05-14T20:44:13.520Z,21.50
2023-05-14T20:46:41.232Z,16.10
2023-05-14T20:49:08.708Z,10.90
2023-05-14T20:51:36.210Z,11.70
2023-05-14T20:54:04.075Z,8.10
2023-05-14T20:56:31.731Z,12.90
2023-05-14T20:58:59.238Z,14.20
2023-05-14T21:01:26.939Z,9.60
2023-05-14T21:03:54.868Z,6.40
2023-05-14T21:06:22.478Z,7.80
2023-05-14T21:08:53.008Z,8.50
2023-05-14T21:11:21.576Z,8.30
2023-05-14T21:13:49.121Z,7.80
2023-05-14T21:16:16.756Z,11.10
2023-05-14T21:18:44.711Z,7.90
2023-05-14T21:21:12.236Z,9.40
2023-05-14T21:23:40.087Z,8.40
2023-05-14T21:26:07.830Z,8.00
2023-05-14T21:28:35.461Z,8.60
2023-05-14T21:31:02.926Z,7.20
2023-05-14T21:33:30.437Z,11.60
2023-05-14T21:35:58.053Z,10.60
2023-05-14T21:38:25.742Z,9.60
2023-05-14T21:40:53.234Z,9.10
2023-05-14T21:43:20.934Z,9.20
2023-05-14T21:45:48.425Z,11.80
2023-05-14T21:48:16.068Z,8.50
2023-05-14T21:50:43.654Z,9.10
2023-05-14T21:53:11.217Z,8.90
2023-05-14T21:55:38.965Z,8.80
2023-05-14T21:58:07.501Z,11.10
2023-05-14T22:00:34.977Z,8.50
2023-05-14T22:03:02.635Z,9.10
2023-05-14T22:05:30.216Z,9.40
2023-05-14T22:07:57.729Z,10.80
2023-05-14T22:10:25.380Z,9.10
2023-05-14T22:12:52.846Z,9.60
2023-05-14T22:15:20.539Z,7.70
2023-05-14T22:17:48.216Z,10.40
2023-05-14T22:20:16.358Z,10.10
2023-05-14T22:22:43.853Z,10.50
2023-05-14T22:25:11.442Z,10.10
2023-05-14T22:27:39.053Z,21.70
2023-05-14T22:30:07.421Z,9.30
2023-05-14T22:32:35.014Z,10.60
2023-05-14T22:35:03.209Z,7.90
2023-05-14T22:37:30.798Z,8.40
2023-05-14T22:39:58.291Z,7.50
2023-05-14T22:42:26.720Z,8.60
2023-05-14T22:44:54.315Z,8.60
2023-05-14T22:47:21.954Z,8.30
2023-05-14T22:49:49.655Z,8.20
2023-05-14T22:52:18.838Z,7.60
2023-05-14T22:54:46.708Z,9.90
2023-05-14T22:57:14.286Z,10.60
2023-05-14T22:59:41.800Z,6.60
2023-05-14T23:02:09.489Z,9.50
2023-05-14T23:04:37.336Z,7.80
2023-05-14T23:07:04.877Z,7.70
2023-05-14T23:09:32.450Z,7.60
2023-05-14T23:12:00.444Z,8.20
2023-05-14T23:14:27.990Z,10.70
2023-05-14T23:16:55.517Z,7.50
2023-05-14T23:19:23.303Z,9.90
2023-05-14T23:21:51.017Z,8.40
2023-05-14T23:24:18.511Z,8.10
2023-05-14T23:26:45.958Z,11.00
2023-05-14T23:29:13.744Z,10.30
2023-05-14T23:31:42.431Z,7.40
2023-05-14T23:34:10.005Z,8.30
2023-05-14T23:36:37.581Z,10.00
2023-05-14T23:39:06.841Z,8.70
2023-05-14T23:41:34.401Z,8.00
2023-05-14T23:44:02.149Z,9.30
2023-05-14T23:46:30.205Z,7.40
2023-05-14T23:48:57.962Z,9.60
2023-05-14T23:51:27.864Z,7.60
2023-05-14T23:54:00.739Z,6.80
2023-05-14T23:56:31.738Z,7.70
2023-05-14T23:58:59.501Z,7.20
